sensor_id;sensor_type;location;lat;lon;timestamp;P1;durP1;ratioP1;P2;durP2;ratioP2
16242;SDS011;11719;51.052;6.982;2024-03-23T00:55:59;11.00;;;3.87;;
16242;SDS011;11719;51.052;6.982;2024-03-23T00:58:25;7.40;;;2.53;;
16242;SDS011;11719;51.052;6.982;2024-03-23T01:00:51;6.80;;;2.67;;
16242;SDS011;11719;51.052;6.982;2024-03-23T01:03:16;6.60;;;1.53;;
16242;SDS011;11719;51.052;6.982;2024-03-23T01:05:42;4.40;;;1.50;;
16242;SDS011;11719;51.052;6.982;2024-03-23T01:08:08;3.20;;;1.30;;
16242;SDS011;11719;51.052;6.982;2024-03-23T01:10:34;3.73;;;1.37;;
16242;SDS011;11719;51.052;6.982;2024-03-23T01:13:00;1.70;;;1.23;;
16242;SDS011;11719;51.052;6.982;2024-03-23T01:15:26;3.90;;;1.27;;
16242;SDS011;11719;51.052;6.982;2024-03-23T01:17:55;2.13;;;1.00;;
16242;SDS011;11719;51.052;6.982;2024-03-23T01:20:20;2.20;;;1.20;;
16242;SDS011;11719;51.052;6.982;2024-03-23T01:22:46;3.67;;;1.13;;
16242;SDS011;11719;51.052;6.982;2024-03-23T01:25:12;2.60;;;1.37;;
16242;SDS011;11719;51.052;6.982;2024-03-23T01:27:38;4.87;;;1.27;;
16242;SDS011;11719;51.052;6.982;2024-03-23T01:30:04;2.13;;;1.07;;
16242;SDS011;11719;51.052;6.982;2024-03-23T01:32:30;1.17;;;0.63;;
16242;SDS011;11719;51.052;6.982;2024-03-23T01:34:56;1.53;;;1.07;;
16242;SDS011;11719;51.052;6.982;2024-03-23T01:37:24;3.27;;;0.97;;
16242;SDS011;11719;51.052;6.982;2024-03-23T01:39:53;3.67;;;0.90;;
16242;SDS011;11719;51.052;6.982;2024-03-23T01:42:19;2.57;;;1.03;;
16242;SDS011;11719;51.052;6.982;2024-03-23T01:44:45;2.80;;;1.00;;
16242;SDS011;11719;51.052;6.982;2024-03-23T01:47:11;1.90;;;0.80;;
16242;SDS011;11719;51.052;6.982;2024-03-23T01:49:37;3.03;;;0.80;;
16242;SDS011;11719;51.052;6.982;2024-03-23T01:52:03;2.70;;;0.80;;
16242;SDS011;11719;51.052;6.982;2024-03-23T01:54:29;3.00;;;1.10;;
16242;SDS011;11719;51.052;6.982;2024-03-23T01:56:56;8.77;;;1.20;;
16242;SDS011;11719;51.052;6.982;2024-03-23T01:59:22;2.63;;;0.90;;
16242;SDS011;11719;51.052;6.982;2024-03-23T02:01:48;1.90;;;0.87;;
16242;SDS011;11719;51.052;6.982;2024-03-23T02:04:17;2.33;;;1.00;;
16242;SDS011;11719;51.052;6.982;2024-03-23T02:06:42;1.20;;;0.77;;
16242;SDS011;11719;51.052;6.982;2024-03-23T02:09:11;1.70;;;0.67;;
16242;SDS011;11719;51.052;6.982;2024-03-23T02:11:37;2.20;;;0.87;;
16242;SDS011;11719;51.052;6.982;2024-03-23T02:14:03;2.70;;;1.17;;
16242;SDS011;11719;51.052;6.982;2024-03-23T02:16:34;2.03;;;1.03;;
16242;SDS011;11719;51.052;6.982;2024-03-23T02:19:00;1.10;;;0.53;;
16242;SDS011;11719;51.052;6.982;2024-03-23T02:21:28;2.70;;;1.30;;
16242;SDS011;11719;51.052;6.982;2024-03-23T02:23:56;3.70;;;0.90;;
16242;SDS011;11719;51.052;6.982;2024-03-23T02:26:24;2.20;;;0.93;;
16242;SDS011;11719;51.052;6.982;2024-03-23T02:28:50;4.83;;;0.83;;
16242;SDS011;11719;51.052;6.982;2024-03-23T02:31:16;1.53;;;1.20;;
16242;SDS011;11719;51.052;6.982;2024-03-23T02:33:41;3.33;;;0.90;;
16242;SDS011;11719;51.052;6.982;2024-03-23T02:36:07;3.43;;;0.90;;
16242;SDS011;11719;51.052;6.982;2024-03-23T02:38:33;2.37;;;0.80;;
16242;SDS011;11719;51.052;6.982;2024-03-23T02:41:04;6.07;;;1.27;;
16242;SDS011;11719;51.052;6.982;2024-03-23T02:43:31;5.50;;;1.40;;
16242;SDS011;11719;51.052;6.982;2024-03-23T02:45:59;3.87;;;0.97;;
16242;SDS011;11719;51.052;6.982;2024-03-23T02:48:26;1.30;;;0.63;;
16242;SDS011;11719;51.052;6.982;2024-03-23T02:50:51;3.93;;;1.10;;
16242;SDS011;11719;51.052;6.982;2024-03-23T02:53:19;3.00;;;1.10;;
16242;SDS011;11719;51.052;6.982;2024-03-23T02:55:48;2.97;;;0.90;;
16242;SDS011;11719;51.052;6.982;2024-03-23T02:58:13;7.20;;;1.00;;
16242;SDS011;11719;51.052;6.982;2024-03-23T03:00:39;3.10;;;0.90;;
16242;SDS011;11719;51.052;6.982;2024-03-23T03:03:07;6.63;;;1.43;;
16242;SDS011;11719;51.052;6.982;2024-03-23T03:05:33;2.97;;;1.10;;
16242;SDS011;11719;51.052;6.982;2024-03-23T03:07:59;5.23;;;0.83;;
16242;SDS011;11719;51.052;6.982;2024-03-23T03:10:25;4.63;;;0.87;;
16242;SDS011;11719;51.052;6.982;2024-03-23T03:12:51;3.33;;;0.50;;
16242;SDS011;11719;51.052;6.982;2024-03-23T03:15:19;2.10;;;1.00;;
16242;SDS011;11719;51.052;6.982;2024-03-23T03:17:44;3.80;;;0.83;;
16242;SDS011;11719;51.052;6.982;2024-03-23T03:20:10;1.90;;;0.70;;
16242;SDS011;11719;51.052;6.982;2024-03-23T03:22:39;1.93;;;0.80;;
16242;SDS011;11719;51.052;6.982;2024-03-23T03:25:05;1.43;;;0.50;;
16242;SDS011;11719;51.052;6.982;2024-03-23T03:27:32;1.97;;;0.87;;
16242;SDS011;11719;51.052;6.982;2024-03-23T03:29:59;4.07;;;0.73;;
16242;SDS011;11719;51.052;6.982;2024-03-23T03:32:27;1.87;;;0.90;;
16242;SDS011;11719;51.052;6.982;2024-03-23T03:34:54;3.30;;;0.90;;
16242;SDS011;11719;51.052;6.982;2024-03-23T03:37:20;1.47;;;0.63;;
16242;SDS011;11719;51.052;6.982;2024-03-23T03:39:46;2.10;;;0.63;;
16242;SDS011;11719;51.052;6.982;2024-03-23T03:42:11;1.67;;;0.60;;
16242;SDS011;11719;51.052;6.982;2024-03-23T03:44:37;1.80;;;0.77;;
16242;SDS011;11719;51.052;6.982;2024-03-23T03:47:06;12.27;;;5.33;;
16242;SDS011;11719;51.052;6.982;2024-03-23T03:49:32;2.67;;;1.10;;
16242;SDS011;11719;51.052;6.982;2024-03-23T03:51:58;2.67;;;0.73;;
16242;SDS011;11719;51.052;6.982;2024-03-23T03:54:26;3.50;;;0.87;;
16242;SDS011;11719;51.052;6.982;2024-03-23T03:56:52;2.77;;;0.70;;
16242;SDS011;11719;51.052;6.982;2024-03-23T03:59:18;2.33;;;0.77;;
16242;SDS011;11719;51.052;6.982;2024-03-23T04:01:45;4.13;;;0.53;;
16242;SDS011;11719;51.052;6.982;2024-03-23T04:04:11;5.67;;;1.13;;
16242;SDS011;11719;51.052;6.982;2024-03-23T04:06:36;2.83;;;1.27;;
16242;SDS011;11719;51.052;6.982;2024-03-23T04:09:02;2.50;;;0.90;;
16242;SDS011;11719;51.052;6.982;2024-03-23T04:11:32;2.13;;;0.90;;
16242;SDS011;11719;51.052;6.982;2024-03-23T04:13:57;3.53;;;1.00;;
16242;SDS011;11719;51.052;6.982;2024-03-23T04:16:27;2.33;;;0.67;;
16242;SDS011;11719;51.052;6.982;2024-03-23T04:18:54;5.13;;;1.00;;
16242;SDS011;11719;51.052;6.982;2024-03-23T04:21:20;3.53;;;0.80;;
16242;SDS011;11719;51.052;6.982;2024-03-23T04:23:50;2.43;;;0.80;;
16242;SDS011;11719;51.052;6.982;2024-03-23T04:26:18;3.93;;;1.03;;
16242;SDS011;11719;51.052;6.982;2024-03-23T04:28:44;2.33;;;0.83;;
16242;SDS011;11719;51.052;6.982;2024-03-23T04:31:10;4.20;;;0.80;;
16242;SDS011;11719;51.052;6.982;2024-03-23T04:33:36;2.77;;;0.70;;
16242;SDS011;11719;51.052;6.982;2024-03-23T04:36:02;5.13;;;0.77;;
16242;SDS011;11719;51.052;6.982;2024-03-23T04:38:28;4.77;;;0.87;;
16242;SDS011;11719;51.052;6.982;2024-03-23T04:40:57;4.83;;;0.87;;
16242;SDS011;11719;51.052;6.982;2024-03-23T04:43:27;1.40;;;1.03;;
16242;SDS011;11719;51.052;6.982;2024-03-23T04:45:53;3.20;;;0.97;;
16242;SDS011;11719;51.052;6.982;2024-03-23T04:48:20;4.30;;;1.00;;
16242;SDS011;11719;51.052;6.982;2024-03-23T04:50:49;2.13;;;0.90;;
16242;SDS011;11719;51.052;6.982;2024-03-23T04:53:20;3.40;;;0.90;;
16242;SDS011;11719;51.052;6.982;2024-03-23T04:55:45;5.53;;;1.13;;
16242;SDS011;11719;51.052;6.982;2024-03-23T04:58:11;2.63;;;0.67;;
16242;SDS011;11719;51.052;6.982;2024-03-23T05:00:37;2.83;;;0.77;;
16242;SDS011;11719;51.052;6.982;2024-03-23T05:03:03;4.47;;;0.53;;
16242;SDS011;11719;51.052;6.982;2024-03-23T05:05:31;5.37;;;0.70;;
16242;SDS011;11719;51.052;6.982;2024-03-23T05:07:57;4.17;;;0.93;;
16242;SDS011;11719;51.052;6.982;2024-03-23T05:10:23;2.07;;;0.93;;
16242;SDS011;11719;51.052;6.982;2024-03-23T05:12:49;3.13;;;0.50;;
16242;SDS011;11719;51.052;6.982;2024-03-23T05:15:14;2.60;;;0.53;;
16242;SDS011;11719;51.052;6.982;2024-03-23T05:17:40;1.53;;;0.63;;
16242;SDS011;11719;51.052;6.982;2024-03-23T05:20:06;4.60;;;1.00;;
16242;SDS011;11719;51.052;6.982;2024-03-23T05:22:35;3.73;;;0.80;;
16242;SDS011;11719;51.052;6.982;2024-03-23T05:25:07;2.10;;;0.93;;
16242;SDS011;11719;51.052;6.982;2024-03-23T05:27:36;2.03;;;0.53;;
16242;SDS011;11719;51.052;6.982;2024-03-23T05:30:02;2.27;;;0.80;;
16242;SDS011;11719;51.052;6.982;2024-03-23T05:32:31;2.33;;;0.53;;
16242;SDS011;11719;51.052;6.982;2024-03-23T05:34:59;1.53;;;0.70;;
16242;SDS011;11719;51.052;6.982;2024-03-23T05:37:26;3.80;;;0.80;;
16242;SDS011;11719;51.052;6.982;2024-03-23T05:39:51;4.33;;;0.70;;
16242;SDS011;11719;51.052;6.982;2024-03-23T05:42:17;2.80;;;0.87;;
16242;SDS011;11719;51.052;6.982;2024-03-23T05:44:44;3.17;;;0.93;;
16242;SDS011;11719;51.052;6.982;2024-03-23T05:47:13;1.47;;;0.80;;
16242;SDS011;11719;51.052;6.982;2024-03-23T05:49:42;7.73;;;1.27;;
16242;SDS011;11719;51.052;6.982;2024-03-23T05:52:09;4.73;;;0.97;;
16242;SDS011;11719;51.052;6.982;2024-03-23T05:54:35;2.73;;;0.77;;
16242;SDS011;11719;51.052;6.982;2024-03-23T05:57:01;5.60;;;0.80;;
16242;SDS011;11719;51.052;6.982;2024-03-23T05:59:28;4.73;;;0.80;;
16242;SDS011;11719;51.052;6.982;2024-03-23T06:01:54;2.03;;;0.67;;
16242;SDS011;11719;51.052;6.982;2024-03-23T06:04:19;3.30;;;0.90;;
16242;SDS011;11719;51.052;6.982;2024-03-23T06:06:53;4.87;;;0.90;;
16242;SDS011;11719;51.052;6.982;2024-03-23T06:09:19;2.20;;;0.60;;
16242;SDS011;11719;51.052;6.982;2024-03-23T06:11:45;2.17;;;0.87;;
16242;SDS011;11719;51.052;6.982;2024-03-23T06:14:14;3.13;;;0.97;;
16242;SDS011;11719;51.052;6.982;2024-03-23T06:16:39;1.67;;;0.70;;
16242;SDS011;11719;51.052;6.982;2024-03-23T06:19:05;6.97;;;1.53;;
16242;SDS011;11719;51.052;6.982;2024-03-23T06:21:34;4.50;;;0.73;;
16242;SDS011;11719;51.052;6.982;2024-03-23T06:24:00;3.87;;;0.80;;
16242;SDS011;11719;51.052;6.982;2024-03-23T06:26:25;2.37;;;0.80;;
16242;SDS011;11719;51.052;6.982;2024-03-23T06:28:51;3.10;;;1.10;;
16242;SDS011;11719;51.052;6.982;2024-03-23T06:31:17;8.50;;;1.10;;
16242;SDS011;11719;51.052;6.982;2024-03-23T06:33:45;2.23;;;0.80;;
16242;SDS011;11719;51.052;6.982;2024-03-23T06:36:11;3.73;;;1.00;;
16242;SDS011;11719;51.052;6.982;2024-03-23T06:38:37;9.27;;;1.10;;
16242;SDS011;11719;51.052;6.982;2024-03-23T06:41:06;3.90;;;1.63;;
16242;SDS011;11719;51.052;6.982;2024-03-23T06:43:31;2.70;;;0.80;;
16242;SDS011;11719;51.052;6.982;2024-03-23T06:45:57;7.47;;;1.50;;
16242;SDS011;11719;51.052;6.982;2024-03-23T06:48:23;3.97;;;1.53;;
16242;SDS011;11719;51.052;6.982;2024-03-23T06:50:54;2.40;;;0.87;;
16242;SDS011;11719;51.052;6.982;2024-03-23T06:53:24;3.77;;;1.10;;
16242;SDS011;11719;51.052;6.982;2024-03-23T06:55:50;4.13;;;0.87;;
16242;SDS011;11719;51.052;6.982;2024-03-23T06:58:20;2.20;;;1.13;;
16242;SDS011;11719;51.052;6.982;2024-03-23T07:00:49;3.97;;;1.17;;
16242;SDS011;11719;51.052;6.982;2024-03-23T07:03:16;3.27;;;1.20;;
16242;SDS011;11719;51.052;6.982;2024-03-23T07:05:44;2.00;;;0.80;;
16242;SDS011;11719;51.052;6.982;2024-03-23T07:08:11;2.77;;;0.97;;
16242;SDS011;11719;51.052;6.982;2024-03-23T07:10:40;4.17;;;1.40;;
16242;SDS011;11719;51.052;6.982;2024-03-23T07:13:05;5.60;;;1.60;;
16242;SDS011;11719;51.052;6.982;2024-03-23T07:15:32;4.57;;;1.20;;
16242;SDS011;11719;51.052;6.982;2024-03-23T07:17:58;5.30;;;1.20;;
16242;SDS011;11719;51.052;6.982;2024-03-23T07:20:24;3.47;;;0.80;;
16242;SDS011;11719;51.052;6.982;2024-03-23T07:22:50;5.60;;;1.57;;
16242;SDS011;11719;51.052;6.982;2024-03-23T07:25:15;3.67;;;1.57;;
16242;SDS011;11719;51.052;6.982;2024-03-23T07:27:46;4.57;;;1.43;;
16242;SDS011;11719;51.052;6.982;2024-03-23T07:30:12;3.60;;;1.50;;
16242;SDS011;11719;51.052;6.982;2024-03-23T07:32:40;2.97;;;1.40;;
16242;SDS011;11719;51.052;6.982;2024-03-23T07:35:12;5.57;;;1.53;;
16242;SDS011;11719;51.052;6.982;2024-03-23T07:37:38;2.47;;;1.53;;
16242;SDS011;11719;51.052;6.982;2024-03-23T07:40:04;4.13;;;1.50;;
16242;SDS011;11719;51.052;6.982;2024-03-23T07:42:31;3.23;;;1.40;;
16242;SDS011;11719;51.052;6.982;2024-03-23T07:44:57;7.60;;;1.57;;
16242;SDS011;11719;51.052;6.982;2024-03-23T07:47:22;5.47;;;1.87;;
16242;SDS011;11719;51.052;6.982;2024-03-23T07:49:48;8.57;;;1.67;;
16242;SDS011;11719;51.052;6.982;2024-03-23T07:52:14;6.23;;;1.70;;
16242;SDS011;11719;51.052;6.982;2024-03-23T07:54:40;4.20;;;1.80;;
16242;SDS011;11719;51.052;6.982;2024-03-23T07:57:05;7.43;;;1.67;;
16242;SDS011;11719;51.052;6.982;2024-03-23T07:59:31;8.07;;;1.90;;
16242;SDS011;11719;51.052;6.982;2024-03-23T08:02:00;4.63;;;2.50;;
16242;SDS011;11719;51.052;6.982;2024-03-23T08:04:27;6.23;;;2.87;;
16242;SDS011;11719;51.052;6.982;2024-03-23T08:06:55;6.10;;;2.40;;
16242;SDS011;11719;51.052;6.982;2024-03-23T08:09:21;9.33;;;2.53;;
16242;SDS011;11719;51.052;6.982;2024-03-23T08:11:47;7.80;;;3.20;;
16242;SDS011;11719;51.052;6.982;2024-03-23T08:14:13;9.17;;;3.00;;
16242;SDS011;11719;51.052;6.982;2024-03-23T08:16:39;5.73;;;2.77;;
16242;SDS011;11719;51.052;6.982;2024-03-23T08:19:05;4.10;;;2.30;;
16242;SDS011;11719;51.052;6.982;2024-03-23T08:21:33;4.60;;;2.20;;
16242;SDS011;11719;51.052;6.982;2024-03-23T08:23:59;5.10;;;2.10;;
16242;SDS011;11719;51.052;6.982;2024-03-23T08:26:25;4.13;;;2.00;;
16242;SDS011;11719;51.052;6.982;2024-03-23T08:28:50;10.30;;;2.80;;
16242;SDS011;11719;51.052;6.982;2024-03-23T08:31:16;2.43;;;1.70;;
16242;SDS011;11719;51.052;6.982;2024-03-23T08:33:42;5.63;;;2.10;;
16242;SDS011;11719;51.052;6.982;2024-03-23T08:36:08;5.67;;;2.10;;
16242;SDS011;11719;51.052;6.982;2024-03-23T08:38:37;4.63;;;1.53;;
16242;SDS011;11719;51.052;6.982;2024-03-23T08:41:12;5.87;;;1.70;;
16242;SDS011;11719;51.052;6.982;2024-03-23T08:43:38;6.10;;;2.67;;
16242;SDS011;11719;51.052;6.982;2024-03-23T08:46:06;4.60;;;1.47;;
16242;SDS011;11719;51.052;6.982;2024-03-23T08:48:34;2.20;;;1.40;;
16242;SDS011;11719;51.052;6.982;2024-03-23T08:51:06;5.53;;;1.67;;
16242;SDS011;11719;51.052;6.982;2024-03-23T08:53:34;1.90;;;0.80;;
16242;SDS011;11719;51.052;6.982;2024-03-23T08:56:00;6.47;;;1.53;;
16242;SDS011;11719;51.052;6.982;2024-03-23T08:58:30;4.80;;;0.93;;
16242;SDS011;11719;51.052;6.982;2024-03-23T09:00:57;4.70;;;1.10;;
16242;SDS011;11719;51.052;6.982;2024-03-23T09:03:36;7.47;;;1.20;;
16242;SDS011;11719;51.052;6.982;2024-03-23T09:06:06;6.73;;;1.33;;
16242;SDS011;11719;51.052;6.982;2024-03-23T09:08:46;3.50;;;1.30;;
16242;SDS011;11719;51.052;6.982;2024-03-23T09:11:12;5.07;;;1.87;;
16242;SDS011;11719;51.052;6.982;2024-03-23T09:13:39;4.50;;;1.80;;
16242;SDS011;11719;51.052;6.982;2024-03-23T09:16:07;7.17;;;1.67;;
16242;SDS011;11719;51.052;6.982;2024-03-23T09:18:34;4.53;;;2.10;;
16242;SDS011;11719;51.052;6.982;2024-03-23T09:21:04;4.20;;;1.97;;
16242;SDS011;11719;51.052;6.982;2024-03-23T09:23:36;7.23;;;2.00;;
16242;SDS011;11719;51.052;6.982;2024-03-23T09:26:03;6.63;;;2.10;;
16242;SDS011;11719;51.052;6.982;2024-03-23T09:28:29;3.90;;;1.93;;
16242;SDS011;11719;51.052;6.982;2024-03-23T09:30:55;2.77;;;1.73;;
16242;SDS011;11719;51.052;6.982;2024-03-23T09:33:30;3.00;;;1.67;;
16242;SDS011;11719;51.052;6.982;2024-03-23T09:35:56;3.47;;;1.30;;
16242;SDS011;11719;51.052;6.982;2024-03-23T09:38:24;3.43;;;1.43;;
16242;SDS011;11719;51.052;6.982;2024-03-23T09:40:52;5.20;;;1.50;;
16242;SDS011;11719;51.052;6.982;2024-03-23T09:43:18;5.20;;;1.93;;
16242;SDS011;11719;51.052;6.982;2024-03-23T09:45:47;4.67;;;1.77;;
16242;SDS011;11719;51.052;6.982;2024-03-23T09:48:15;2.47;;;1.03;;
16242;SDS011;11719;51.052;6.982;2024-03-23T09:50:44;4.03;;;1.40;;
16242;SDS011;11719;51.052;6.982;2024-03-23T09:53:11;3.90;;;1.33;;
16242;SDS011;11719;51.052;6.982;2024-03-23T09:55:41;7.27;;;1.40;;
16242;SDS011;11719;51.052;6.982;2024-03-23T09:58:12;6.73;;;1.43;;
16242;SDS011;11719;51.052;6.982;2024-03-23T10:00:42;2.30;;;0.93;;
16242;SDS011;11719;51.052;6.982;2024-03-23T10:03:08;3.97;;;1.13;;
16242;SDS011;11719;51.052;6.982;2024-03-23T10:05:36;2.57;;;0.93;;
16242;SDS011;11719;51.052;6.982;2024-03-23T10:08:17;2.70;;;1.10;;
16242;SDS011;11719;51.052;6.982;2024-03-23T10:10:44;4.27;;;0.67;;
16242;SDS011;11719;51.052;6.982;2024-03-23T10:13:11;1.90;;;0.93;;
16242;SDS011;11719;51.052;6.982;2024-03-23T10:15:54;1.53;;;0.70;;
16242;SDS011;11719;51.052;6.982;2024-03-23T10:18:24;3.50;;;0.60;;
16242;SDS011;11719;51.052;6.982;2024-03-23T10:21:12;1.83;;;0.80;;
16242;SDS011;11719;51.052;6.982;2024-03-23T10:23:42;3.00;;;0.83;;
16242;SDS011;11719;51.052;6.982;2024-03-23T10:26:12;1.20;;;0.80;;
16242;SDS011;11719;51.052;6.982;2024-03-23T10:31:30;3.67;;;0.83;;
16242;SDS011;11719;51.052;6.982;2024-03-23T10:33:57;7.03;;;0.87;;
16242;SDS011;11719;51.052;6.982;2024-03-23T10:36:23;4.60;;;0.50;;
16242;SDS011;11719;51.052;6.982;2024-03-23T10:38:51;1.97;;;0.77;;
16242;SDS011;11719;51.052;6.982;2024-03-23T10:41:20;5.03;;;0.80;;
16242;SDS011;11719;51.052;6.982;2024-03-23T10:43:46;2.00;;;0.40;;
16242;SDS011;11719;51.052;6.982;2024-03-23T10:46:13;2.20;;;0.90;;
16242;SDS011;11719;51.052;6.982;2024-03-23T10:48:39;2.33;;;0.57;;
16242;SDS011;11719;51.052;6.982;2024-03-23T10:51:08;2.53;;;0.30;;
16242;SDS011;11719;51.052;6.982;2024-03-23T10:53:35;0.57;;;0.30;;
16242;SDS011;11719;51.052;6.982;2024-03-23T10:56:05;3.93;;;0.47;;
16242;SDS011;11719;51.052;6.982;2024-03-23T10:58:34;0.67;;;0.33;;
16242;SDS011;11719;51.052;6.982;2024-03-23T11:01:10;1.80;;;0.60;;
16242;SDS011;11719;51.052;6.982;2024-03-23T11:03:37;1.40;;;0.40;;
16242;SDS011;11719;51.052;6.982;2024-03-23T11:06:05;0.77;;;0.40;;
16242;SDS011;11719;51.052;6.982;2024-03-23T11:11:21;0.37;;;0.37;;
16242;SDS011;11719;51.052;6.982;2024-03-23T11:13:53;1.80;;;0.33;;
16242;SDS011;11719;51.052;6.982;2024-03-23T11:16:28;0.63;;;0.40;;
16242;SDS011;11719;51.052;6.982;2024-03-23T11:22:03;0.50;;;0.30;;
16242;SDS011;11719;51.052;6.982;2024-03-23T11:24:30;1.27;;;0.20;;
16242;SDS011;11719;51.052;6.982;2024-03-23T11:26:56;0.13;;;0.10;;
16242;SDS011;11719;51.052;6.982;2024-03-23T11:29:28;2.23;;;1.30;;
16242;SDS011;11719;51.052;6.982;2024-03-23T11:31:55;0.87;;;0.30;;
16242;SDS011;11719;51.052;6.982;2024-03-23T11:34:21;0.40;;;0.10;;
16242;SDS011;11719;51.052;6.982;2024-03-23T11:36:48;0.00;;;0.00;;
16242;SDS011;11719;51.052;6.982;2024-03-23T11:39:19;2.27;;;0.20;;
16242;SDS011;11719;51.052;6.982;2024-03-23T11:41:51;0.13;;;0.10;;
16242;SDS011;11719;51.052;6.982;2024-03-23T11:44:21;0.73;;;0.37;;
16242;SDS011;11719;51.052;6.982;2024-03-23T11:46:51;2.33;;;0.20;;
16242;SDS011;11719;51.052;6.982;2024-03-23T11:49:28;3.57;;;0.30;;
16242;SDS011;11719;51.052;6.982;2024-03-23T11:51:55;0.40;;;0.20;;
16242;SDS011;11719;51.052;6.982;2024-03-23T11:54:22;0.37;;;0.23;;
16242;SDS011;11719;51.052;6.982;2024-03-23T11:57:02;2.10;;;0.40;;
16242;SDS011;11719;51.052;6.982;2024-03-23T11:59:37;1.00;;;0.40;;
16242;SDS011;11719;51.052;6.982;2024-03-23T12:02:08;3.00;;;0.37;;
16242;SDS011;11719;51.052;6.982;2024-03-23T12:04:41;3.53;;;0.30;;
16242;SDS011;11719;51.052;6.982;2024-03-23T12:09:46;4.60;;;0.60;;
16242;SDS011;11719;51.052;6.982;2024-03-23T12:12:28;1.07;;;0.50;;
16242;SDS011;11719;51.052;6.982;2024-03-23T12:15:04;1.43;;;0.63;;
16242;SDS011;11719;51.052;6.982;2024-03-23T12:17:32;0.63;;;0.40;;
16242;SDS011;11719;51.052;6.982;2024-03-23T12:20:04;1.37;;;0.63;;
16242;SDS011;11719;51.052;6.982;2024-03-23T12:22:30;0.60;;;0.10;;
16242;SDS011;11719;51.052;6.982;2024-03-23T12:24:56;3.67;;;0.30;;
16242;SDS011;11719;51.052;6.982;2024-03-23T12:27:22;1.20;;;0.50;;
16242;SDS011;11719;51.052;6.982;2024-03-23T12:29:48;0.27;;;0.20;;
16242;SDS011;11719;51.052;6.982;2024-03-23T12:32:14;1.20;;;0.30;;
16242;SDS011;11719;51.052;6.982;2024-03-23T12:34:41;1.13;;;0.40;;
16242;SDS011;11719;51.052;6.982;2024-03-23T12:37:07;0.30;;;0.30;;
16242;SDS011;11719;51.052;6.982;2024-03-23T12:39:34;1.07;;;0.53;;
16242;SDS011;11719;51.052;6.982;2024-03-23T12:42:00;1.60;;;0.33;;
16242;SDS011;11719;51.052;6.982;2024-03-23T12:44:33;0.37;;;0.20;;
16242;SDS011;11719;51.052;6.982;2024-03-23T12:46:59;0.10;;;0.10;;
16242;SDS011;11719;51.052;6.982;2024-03-23T12:49:25;1.20;;;0.40;;
16242;SDS011;11719;51.052;6.982;2024-03-23T12:51:56;1.43;;;0.10;;
16242;SDS011;11719;51.052;6.982;2024-03-23T12:54:25;0.10;;;0.10;;
16242;SDS011;11719;51.052;6.982;2024-03-23T12:56:55;1.93;;;0.90;;
16242;SDS011;11719;51.052;6.982;2024-03-23T12:59:21;1.50;;;0.87;;
16242;SDS011;11719;51.052;6.982;2024-03-23T13:01:47;1.53;;;0.90;;
16242;SDS011;11719;51.052;6.982;2024-03-23T13:04:13;2.87;;;0.43;;
16242;SDS011;11719;51.052;6.982;2024-03-23T13:06:39;1.00;;;0.40;;
16242;SDS011;11719;51.052;6.982;2024-03-23T13:09:07;2.23;;;0.30;;
16242;SDS011;11719;51.052;6.982;2024-03-23T13:11:34;0.00;;;0.00;;
16242;SDS011;11719;51.052;6.982;2024-03-23T13:13:59;0.40;;;0.30;;
16242;SDS011;11719;51.052;6.982;2024-03-23T13:16:25;1.57;;;0.30;;
16242;SDS011;11719;51.052;6.982;2024-03-23T13:18:51;0.93;;;0.23;;
16242;SDS011;11719;51.052;6.982;2024-03-23T13:21:20;0.40;;;0.40;;
16242;SDS011;11719;51.052;6.982;2024-03-23T13:23:46;1.57;;;0.67;;
16242;SDS011;11719;51.052;6.982;2024-03-23T13:26:13;1.63;;;0.30;;
16242;SDS011;11719;51.052;6.982;2024-03-23T13:28:39;1.17;;;0.53;;
16242;SDS011;11719;51.052;6.982;2024-03-23T13:31:08;1.43;;;0.50;;
16242;SDS011;11719;51.052;6.982;2024-03-23T13:33:33;2.57;;;0.67;;
16242;SDS011;11719;51.052;6.982;2024-03-23T13:35:59;2.20;;;0.73;;
16242;SDS011;11719;51.052;6.982;2024-03-23T13:38:28;3.13;;;1.00;;
16242;SDS011;11719;51.052;6.982;2024-03-23T13:43:27;3.47;;;1.30;;
16242;SDS011;11719;51.052;6.982;2024-03-23T13:45:54;1.20;;;0.80;;
16242;SDS011;11719;51.052;6.982;2024-03-23T13:48:24;1.47;;;1.03;;
16242;SDS011;11719;51.052;6.982;2024-03-23T13:51:01;3.37;;;0.87;;
16242;SDS011;11719;51.052;6.982;2024-03-23T13:53:29;1.47;;;0.73;;
16242;SDS011;11719;51.052;6.982;2024-03-23T13:55:58;1.50;;;0.67;;
16242;SDS011;11719;51.052;6.982;2024-03-23T13:58:24;1.97;;;0.90;;
16242;SDS011;11719;51.052;6.982;2024-03-23T14:00:50;3.13;;;0.63;;
16242;SDS011;11719;51.052;6.982;2024-03-23T14:03:17;1.03;;;0.90;;
16242;SDS011;11719;51.052;6.982;2024-03-23T14:05:45;1.87;;;0.63;;
16242;SDS011;11719;51.052;6.982;2024-03-23T14:08:14;1.40;;;0.63;;
16242;SDS011;11719;51.052;6.982;2024-03-23T14:10:41;0.33;;;0.23;;
16242;SDS011;11719;51.052;6.982;2024-03-23T14:13:07;1.60;;;0.50;;
16242;SDS011;11719;51.052;6.982;2024-03-23T14:15:33;0.50;;;0.40;;
16242;SDS011;11719;51.052;6.982;2024-03-23T14:17:59;1.57;;;0.60;;
16242;SDS011;11719;51.052;6.982;2024-03-23T14:20:25;1.57;;;0.60;;
16242;SDS011;11719;51.052;6.982;2024-03-23T14:22:51;1.27;;;0.80;;
16242;SDS011;11719;51.052;6.982;2024-03-23T14:25:17;1.40;;;0.83;;
16242;SDS011;11719;51.052;6.982;2024-03-23T14:27:44;2.07;;;0.80;;
16242;SDS011;11719;51.052;6.982;2024-03-23T14:30:13;4.47;;;0.90;;
16242;SDS011;11719;51.052;6.982;2024-03-23T14:33:00;1.37;;;0.60;;
16242;SDS011;11719;51.052;6.982;2024-03-23T14:35:27;0.83;;;0.43;;
16242;SDS011;11719;51.052;6.982;2024-03-23T14:37:52;1.33;;;0.63;;
16242;SDS011;11719;51.052;6.982;2024-03-23T14:40:34;1.33;;;0.50;;
16242;SDS011;11719;51.052;6.982;2024-03-23T14:43:10;0.77;;;0.60;;
16242;SDS011;11719;51.052;6.982;2024-03-23T14:45:36;2.13;;;0.73;;
16242;SDS011;11719;51.052;6.982;2024-03-23T14:48:04;1.57;;;0.57;;
16242;SDS011;11719;51.052;6.982;2024-03-23T14:50:35;2.40;;;0.70;;
16242;SDS011;11719;51.052;6.982;2024-03-23T14:53:08;0.73;;;0.73;;
16242;SDS011;11719;51.052;6.982;2024-03-23T14:55:36;0.40;;;0.30;;
16242;SDS011;11719;51.052;6.982;2024-03-23T14:58:05;1.60;;;0.47;;
16242;SDS011;11719;51.052;6.982;2024-03-23T15:00:42;2.40;;;0.60;;
16242;SDS011;11719;51.052;6.982;2024-03-23T15:03:17;5.20;;;0.57;;
16242;SDS011;11719;51.052;6.982;2024-03-23T15:06:03;0.67;;;0.40;;
16242;SDS011;11719;51.052;6.982;2024-03-23T15:08:48;1.17;;;0.50;;
16242;SDS011;11719;51.052;6.982;2024-03-23T15:11:14;3.63;;;0.40;;
16242;SDS011;11719;51.052;6.982;2024-03-23T15:13:49;2.47;;;0.40;;
16242;SDS011;11719;51.052;6.982;2024-03-23T15:16:31;1.80;;;0.67;;
16242;SDS011;11719;51.052;6.982;2024-03-23T15:19:02;1.20;;;0.37;;
16242;SDS011;11719;51.052;6.982;2024-03-23T15:21:36;2.03;;;0.53;;
16242;SDS011;11719;51.052;6.982;2024-03-23T15:24:09;1.90;;;0.77;;
16242;SDS011;11719;51.052;6.982;2024-03-23T15:27:10;1.17;;;0.80;;
16242;SDS011;11719;51.052;6.982;2024-03-23T15:29:48;1.60;;;0.50;;
16242;SDS011;11719;51.052;6.982;2024-03-23T15:32:29;1.67;;;0.50;;
16242;SDS011;11719;51.052;6.982;2024-03-23T15:35:14;0.47;;;0.30;;
16242;SDS011;11719;51.052;6.982;2024-03-23T15:38:13;2.03;;;0.50;;
16242;SDS011;11719;51.052;6.982;2024-03-23T15:41:17;2.87;;;0.80;;
16242;SDS011;11719;51.052;6.982;2024-03-23T15:44:14;0.33;;;0.30;;
16242;SDS011;11719;51.052;6.982;2024-03-23T15:47:06;2.00;;;0.50;;
16242;SDS011;11719;51.052;6.982;2024-03-23T15:53:09;0.63;;;0.40;;
16242;SDS011;11719;51.052;6.982;2024-03-23T15:55:39;1.70;;;0.67;;
16242;SDS011;11719;51.052;6.982;2024-03-23T15:58:26;2.63;;;0.60;;
16242;SDS011;11719;51.052;6.982;2024-03-23T16:01:08;1.13;;;0.70;;
16242;SDS011;11719;51.052;6.982;2024-03-23T16:04:22;0.50;;;0.40;;
16242;SDS011;11719;51.052;6.982;2024-03-23T16:07:09;0.20;;;0.20;;
16242;SDS011;11719;51.052;6.982;2024-03-23T16:10:11;1.67;;;0.30;;